KPHN/PHN METAR and TAF weather

Enter ICAO airport designator
Station Type Date Time Source
KPHN METAR 2024/04/15 08:15 UTC NOAA

KPHN 150815Z AUTO 32004KT 10SM BKN100 06/04 A2987 RMK AO2


Station Type Date Time Source
KPHN Decoded METAR 2024/04/15 08:15 UTC NOAA

St. Clair County International, MI, United States (KPHN) 42-55N 082-32W
Apr 15, 2024 - 04:15 AM EDT / 2024.04.15 0815 UTC
Wind: from the NW (320 degrees) at 5 MPH (4 KT):0
Visibility: 10 mile(s):0
Sky conditions: mostly cloudy
Temperature: 42 F (6 C)
Dew Point: 39 F (4 C)
Relative Humidity: 86%
Pressure (altimeter): 29.87 in. Hg (1011 hPa)
ob: KPHN 150815Z AUTO 32004KT 10SM BKN100 06/04 A2987 RMK AO2
cycle: 8

Station Type Date Time Source
KPHN TAF UTC NOAA

Error!

Example: see airport list